CMA694 LFPG-ELLX
Flight info
| Callsign | CMA694 |
|---|---|
| Flight time | 0h 28m |
| Altitude | 19000 |
| Route | LFPG/09R N0378F190 DIKO6G DIKOL J10 SUIPE M163 MMD MMD2V ELLX/06 |
| Aircraft | B77F/H-V/N |
Departure
| Time | 2026-05-08 12:05 |
|---|---|
| Airport | Charles de Gaulle International Airport (LFPG) |
Arrival
| Time | 2026-05-08 12:33 |
|---|---|
| Airport | Luxembourg-Findel International Airport (ELLX) |
| Time | Latitude | Longitude | Altitude | Speed | Heading |
|---|---|---|---|---|---|
| 2026-05-08 11:39 | 48.99999 | 2.54099 | 358 ft | 0 kts | 356° |
| 2026-05-08 11:55 | 48.99995 | 2.54099 | 358 ft | 2 kts | 355° |
| 2026-05-08 11:55 | 48.99979 | 2.54101 | 367 ft | 2 kts | 356° |
| 2026-05-08 11:56 | 48.99962 | 2.54103 | 365 ft | 2 kts | 357° |
| 2026-05-08 11:56 | 48.99946 | 2.54104 | 364 ft | 2 kts | 4° |
| 2026-05-08 11:56 | 48.99930 | 2.54097 | 366 ft | 2 kts | 35° |
| 2026-05-08 11:56 | 48.99918 | 2.54080 | 363 ft | 2 kts | 57° |
| 2026-05-08 11:57 | 48.99911 | 2.54060 | 364 ft | 1 kts | 76° |
| 2026-05-08 11:57 | 48.99910 | 2.54054 | 364 ft | 0 kts | 80° |
| 2026-05-08 12:00 | 48.99910 | 2.54055 | 364 ft | 0 kts | 80° |
| 2026-05-08 12:00 | 48.99912 | 2.54072 | 365 ft | 3 kts | 82° |
| 2026-05-08 12:01 | 48.99915 | 2.54126 | 366 ft | 7 kts | 86° |
| 2026-05-08 12:01 | 48.99912 | 2.54213 | 365 ft | 9 kts | 113° |
| 2026-05-08 12:01 | 48.99852 | 2.54261 | 367 ft | 10 kts | 147° |
| 2026-05-08 12:01 | 48.99838 | 2.54360 | 360 ft | 10 kts | 86° |
| 2026-05-08 12:02 | 48.99844 | 2.54474 | 360 ft | 12 kts | 84° |
| 2026-05-08 12:02 | 48.99850 | 2.54607 | 362 ft | 13 kts | 86° |
| 2026-05-08 12:02 | 48.99855 | 2.54748 | 359 ft | 13 kts | 94° |
| 2026-05-08 12:02 | 48.99816 | 2.54832 | 365 ft | 10 kts | 174° |
| 2026-05-08 12:03 | 48.99753 | 2.54864 | 363 ft | 10 kts | 141° |
| 2026-05-08 12:03 | 48.99717 | 2.54953 | 363 ft | 10 kts | 117° |
| 2026-05-08 12:03 | 48.99688 | 2.55048 | 365 ft | 10 kts | 114° |
| 2026-05-08 12:03 | 48.99659 | 2.55143 | 366 ft | 10 kts | 115° |
| 2026-05-08 12:04 | 48.99628 | 2.55241 | 366 ft | 11 kts | 116° |
| 2026-05-08 12:04 | 48.99586 | 2.55371 | 363 ft | 18 kts | 114° |
| 2026-05-08 12:04 | 48.99588 | 2.55650 | 362 ft | 48 kts | 85° |
| 2026-05-08 12:04 | 48.99618 | 2.56159 | 362 ft | 97 kts | 85° |
| 2026-05-08 12:05 | 48.99725 | 2.58120 | 368 ft | 177 kts | 86° |
| 2026-05-08 12:05 | 48.99822 | 2.60040 | 903 ft | 180 kts | 85° |
| 2026-05-08 12:05 | 48.99881 | 2.61309 | 1512 ft | 174 kts | 85° |
| 2026-05-08 12:05 | 48.99973 | 2.63165 | 2120 ft | 187 kts | 85° |
| 2026-05-08 12:06 | 49.00094 | 2.65256 | 2549 ft | 211 kts | 84° |
| 2026-05-08 12:06 | 49.00259 | 2.67609 | 2998 ft | 235 kts | 84° |
| 2026-05-08 12:06 | 49.00415 | 2.70168 | 3711 ft | 247 kts | 85° |
| 2026-05-08 12:06 | 49.00525 | 2.72764 | 4718 ft | 244 kts | 86° |
| 2026-05-08 12:07 | 49.00654 | 2.75389 | 5492 ft | 255 kts | 85° |
| 2026-05-08 12:07 | 49.00800 | 2.78162 | 6116 ft | 269 kts | 85° |
| 2026-05-08 12:07 | 49.00975 | 2.81039 | 6943 ft | 273 kts | 86° |
| 2026-05-08 12:07 | 49.01104 | 2.83946 | 7759 ft | 278 kts | 86° |
| 2026-05-08 12:08 | 49.01235 | 2.86884 | 8505 ft | 285 kts | 86° |
| 2026-05-08 12:08 | 49.01380 | 2.89915 | 9342 ft | 290 kts | 86° |
| 2026-05-08 12:08 | 49.01534 | 2.93002 | 10149 ft | 294 kts | 85° |
| 2026-05-08 12:08 | 49.01808 | 2.96167 | 10663 ft | 311 kts | 81° |
| 2026-05-08 12:09 | 49.02203 | 2.99564 | 10863 ft | 339 kts | 80° |
| 2026-05-08 12:09 | 49.02655 | 3.03229 | 11134 ft | 363 kts | 80° |
| 2026-05-08 12:09 | 49.03129 | 3.07082 | 11845 ft | 374 kts | 80° |
| 2026-05-08 12:09 | 49.03597 | 3.10970 | 12769 ft | 380 kts | 81° |
| 2026-05-08 12:10 | 49.04068 | 3.14968 | 13780 ft | 385 kts | 81° |
| 2026-05-08 12:10 | 49.04538 | 3.19025 | 14648 ft | 391 kts | 81° |
| 2026-05-08 12:10 | 49.05010 | 3.23131 | 15506 ft | 396 kts | 81° |
| 2026-05-08 12:10 | 49.05485 | 3.27303 | 16373 ft | 401 kts | 81° |
| 2026-05-08 12:11 | 49.05955 | 3.31448 | 17340 ft | 402 kts | 81° |
| 2026-05-08 12:11 | 49.06429 | 3.35637 | 18423 ft | 400 kts | 81° |
| 2026-05-08 12:11 | 49.06903 | 3.39821 | 18997 ft | 400 kts | 81° |
| 2026-05-08 12:11 | 49.07375 | 3.44016 | 19071 ft | 403 kts | 81° |
| 2026-05-08 12:12 | 49.07848 | 3.48229 | 19071 ft | 401 kts | 81° |
| 2026-05-08 12:12 | 49.08316 | 3.52418 | 19073 ft | 400 kts | 81° |
| 2026-05-08 12:12 | 49.08779 | 3.56594 | 19073 ft | 400 kts | 82° |
| 2026-05-08 12:12 | 49.09227 | 3.60788 | 19069 ft | 400 kts | 82° |
| 2026-05-08 12:13 | 49.09669 | 3.64997 | 19072 ft | 400 kts | 82° |
| 2026-05-08 12:13 | 49.10101 | 3.69138 | 19066 ft | 400 kts | 82° |
| 2026-05-08 12:13 | 49.10540 | 3.73336 | 19059 ft | 400 kts | 82° |
| 2026-05-08 12:13 | 49.10980 | 3.77557 | 19061 ft | 400 kts | 82° |
| 2026-05-08 12:14 | 49.11417 | 3.81755 | 19052 ft | 400 kts | 82° |
| 2026-05-08 12:14 | 49.11854 | 3.85961 | 19048 ft | 400 kts | 82° |
| 2026-05-08 12:14 | 49.12287 | 3.90151 | 19050 ft | 400 kts | 82° |
| 2026-05-08 12:14 | 49.12715 | 3.94291 | 19055 ft | 399 kts | 82° |
| 2026-05-08 12:15 | 49.13145 | 3.98483 | 19052 ft | 399 kts | 82° |
| 2026-05-08 12:15 | 49.13599 | 4.02662 | 19045 ft | 396 kts | 78° |
| 2026-05-08 12:15 | 49.14614 | 4.06574 | 19037 ft | 398 kts | 57° |
| 2026-05-08 12:15 | 49.16327 | 4.09879 | 19071 ft | 400 kts | 49° |
| 2026-05-08 12:16 | 49.18149 | 4.13131 | 19057 ft | 405 kts | 50° |
| 2026-05-08 12:16 | 49.19936 | 4.16404 | 19052 ft | 404 kts | 51° |
| 2026-05-08 12:16 | 49.21735 | 4.19767 | 19042 ft | 402 kts | 51° |
| 2026-05-08 12:16 | 49.23447 | 4.23061 | 19041 ft | 399 kts | 54° |
| 2026-05-08 12:17 | 49.24879 | 4.26693 | 19050 ft | 398 kts | 64° |
| 2026-05-08 12:17 | 49.25974 | 4.30588 | 19052 ft | 397 kts | 71° |
| 2026-05-08 12:17 | 49.26732 | 4.34660 | 19055 ft | 396 kts | 77° |
| 2026-05-08 12:17 | 49.27386 | 4.38720 | 19064 ft | 397 kts | 77° |
| 2026-05-08 12:18 | 49.28033 | 4.42840 | 19063 ft | 399 kts | 77° |
| 2026-05-08 12:18 | 49.28684 | 4.46978 | 19066 ft | 400 kts | 77° |
| 2026-05-08 12:18 | 49.29343 | 4.51135 | 19067 ft | 401 kts | 77° |
| 2026-05-08 12:18 | 49.30009 | 4.55303 | 19060 ft | 400 kts | 77° |
| 2026-05-08 12:19 | 49.30665 | 4.59379 | 19049 ft | 386 kts | 77° |
| 2026-05-08 12:19 | 49.31290 | 4.63249 | 19053 ft | 370 kts | 77° |
| 2026-05-08 12:19 | 49.31898 | 4.67017 | 18987 ft | 358 kts | 77° |
| 2026-05-08 12:19 | 49.32496 | 4.70743 | 18665 ft | 369 kts | 77° |
| 2026-05-08 12:20 | 49.33122 | 4.74658 | 18350 ft | 384 kts | 77° |
| 2026-05-08 12:20 | 49.33758 | 4.78642 | 17918 ft | 386 kts | 77° |
| 2026-05-08 12:20 | 49.34398 | 4.82646 | 17476 ft | 383 kts | 77° |
| 2026-05-08 12:20 | 49.35020 | 4.86546 | 17066 ft | 379 kts | 77° |
| 2026-05-08 12:21 | 49.35642 | 4.90456 | 16634 ft | 376 kts | 77° |
| 2026-05-08 12:21 | 49.36257 | 4.94336 | 16227 ft | 371 kts | 77° |
| 2026-05-08 12:21 | 49.36864 | 4.98168 | 15860 ft | 366 kts | 77° |
| 2026-05-08 12:21 | 49.37458 | 5.01939 | 15517 ft | 361 kts | 77° |
| 2026-05-08 12:22 | 49.38044 | 5.05665 | 15142 ft | 357 kts | 77° |
| 2026-05-08 12:22 | 49.38625 | 5.09360 | 14772 ft | 353 kts | 77° |
| 2026-05-08 12:22 | 49.39198 | 5.12961 | 14406 ft | 350 kts | 76° |
| 2026-05-08 12:22 | 49.39904 | 5.16528 | 14037 ft | 347 kts | 72° |
| 2026-05-08 12:23 | 49.40683 | 5.20023 | 13641 ft | 344 kts | 71° |
| 2026-05-08 12:23 | 49.41468 | 5.23479 | 13239 ft | 340 kts | 71° |
| 2026-05-08 12:23 | 49.42238 | 5.26901 | 12873 ft | 336 kts | 72° |
| 2026-05-08 12:23 | 49.42989 | 5.30290 | 12514 ft | 333 kts | 72° |
| 2026-05-08 12:24 | 49.43724 | 5.33636 | 12147 ft | 328 kts | 72° |
| 2026-05-08 12:24 | 49.44446 | 5.36947 | 11808 ft | 324 kts | 72° |
| 2026-05-08 12:24 | 49.45149 | 5.40188 | 11469 ft | 321 kts | 72° |
| 2026-05-08 12:24 | 49.45851 | 5.43439 | 11120 ft | 318 kts | 73° |
| 2026-05-08 12:25 | 49.46543 | 5.46650 | 10783 ft | 315 kts | 73° |
| 2026-05-08 12:25 | 49.47228 | 5.49830 | 10453 ft | 312 kts | 73° |
| 2026-05-08 12:25 | 49.47899 | 5.52955 | 10297 ft | 302 kts | 73° |
| 2026-05-08 12:25 | 49.48545 | 5.55968 | 10161 ft | 291 kts | 73° |
| 2026-05-08 12:26 | 49.48985 | 5.58940 | 9950 ft | 282 kts | 84° |
| 2026-05-08 12:26 | 49.49182 | 5.61902 | 9646 ft | 281 kts | 87° |
| 2026-05-08 12:26 | 49.49346 | 5.64899 | 9324 ft | 280 kts | 86° |
| 2026-05-08 12:26 | 49.49527 | 5.67871 | 9013 ft | 278 kts | 86° |
| 2026-05-08 12:27 | 49.49725 | 5.70818 | 8727 ft | 276 kts | 85° |
| 2026-05-08 12:27 | 49.49930 | 5.73759 | 8415 ft | 275 kts | 85° |
| 2026-05-08 12:27 | 49.50136 | 5.76672 | 8163 ft | 271 kts | 85° |
| 2026-05-08 12:27 | 49.50338 | 5.79514 | 8120 ft | 264 kts | 85° |
| 2026-05-08 12:28 | 49.50537 | 5.82332 | 8033 ft | 265 kts | 85° |
| 2026-05-08 12:28 | 49.50735 | 5.85153 | 7819 ft | 264 kts | 85° |
| 2026-05-08 12:28 | 49.50930 | 5.87933 | 7510 ft | 266 kts | 85° |
| 2026-05-08 12:28 | 49.51342 | 5.90695 | 7058 ft | 266 kts | 68° |
| 2026-05-08 12:29 | 49.52193 | 5.93220 | 6569 ft | 263 kts | 60° |
| 2026-05-08 12:29 | 49.53119 | 5.95602 | 6023 ft | 254 kts | 60° |
| 2026-05-08 12:29 | 49.53997 | 5.97915 | 5437 ft | 245 kts | 60° |
| 2026-05-08 12:29 | 49.54834 | 6.00161 | 4869 ft | 238 kts | 60° |
| 2026-05-08 12:30 | 49.55634 | 6.02305 | 4335 ft | 227 kts | 60° |
| 2026-05-08 12:30 | 49.56399 | 6.04363 | 3732 ft | 216 kts | 61° |
| 2026-05-08 12:30 | 49.57118 | 6.06301 | 3251 ft | 197 kts | 61° |
| 2026-05-08 12:30 | 49.57779 | 6.08059 | 3139 ft | 183 kts | 60° |
| 2026-05-08 12:31 | 49.58430 | 6.09729 | 2554 ft | 178 kts | 60° |
| 2026-05-08 12:31 | 49.59006 | 6.11253 | 2296 ft | 150 kts | 61° |
| 2026-05-08 12:31 | 49.59490 | 6.12611 | 2056 ft | 142 kts | 62° |
| 2026-05-08 12:31 | 49.59989 | 6.13962 | 2003 ft | 149 kts | 60° |
| 2026-05-08 12:32 | 49.60507 | 6.15366 | 1900 ft | 152 kts | 61° |
| 2026-05-08 12:32 | 49.61009 | 6.16749 | 1629 ft | 148 kts | 60° |
| 2026-05-08 12:32 | 49.61526 | 6.18105 | 1357 ft | 145 kts | 60° |
| 2026-05-08 12:32 | 49.62006 | 6.19422 | 1212 ft | 136 kts | 60° |
| 2026-05-08 12:33 | 49.62423 | 6.20554 | 1255 ft | 102 kts | 60° |
| 2026-05-08 12:33 | 49.62700 | 6.21293 | 1252 ft | 61 kts | 60° |
| 2026-05-08 12:33 | 49.62908 | 6.21852 | 1227 ft | 51 kts | 60° |
| 2026-05-08 12:33 | 49.63018 | 6.22121 | 1228 ft | 11 kts | 36° |
| 2026-05-08 12:34 | 49.63084 | 6.22106 | 1229 ft | 10 kts | 333° |
| 2026-05-08 12:34 | 49.63145 | 6.22054 | 1232 ft | 10 kts | 330° |
| 2026-05-08 12:34 | 49.63208 | 6.22069 | 1232 ft | 10 kts | 41° |
| 2026-05-08 12:34 | 49.63244 | 6.22178 | 1229 ft | 13 kts | 67° |
| 2026-05-08 12:35 | 49.63284 | 6.22309 | 1228 ft | 14 kts | 64° |
| 2026-05-08 12:35 | 49.63331 | 6.22459 | 1223 ft | 17 kts | 64° |
| 2026-05-08 12:35 | 49.63390 | 6.22620 | 1222 ft | 18 kts | 58° |
| 2026-05-08 12:35 | 49.63449 | 6.22783 | 1221 ft | 14 kts | 60° |
| 2026-05-08 12:36 | 49.63493 | 6.22856 | 1222 ft | 9 kts | 14° |
| 2026-05-08 12:36 | 49.63553 | 6.22821 | 1224 ft | 9 kts | 330° |
| 2026-05-08 12:36 | 49.63609 | 6.22771 | 1227 ft | 9 kts | 330° |
| 2026-05-08 12:36 | 49.63665 | 6.22723 | 1228 ft | 9 kts | 331° |
| 2026-05-08 12:37 | 49.63721 | 6.22673 | 1228 ft | 9 kts | 330° |
| 2026-05-08 12:37 | 49.63753 | 6.22627 | 1229 ft | 4 kts | 285° |
| 2026-05-08 12:37 | 49.63740 | 6.22583 | 1229 ft | 5 kts | 239° |
| 2026-05-08 12:37 | 49.63723 | 6.22537 | 1228 ft | 1 kts | 240° |
| 2026-05-08 12:38 | 49.63723 | 6.22536 | 1228 ft | 0 kts | 240° |